sensor_id;sensor_type;location;lat;lon;timestamp;P1;durP1;ratioP1;P2;durP2;ratioP2
8219;SDS011;4151;51.110;7.020;2023-04-25T00:00:40;11.20;;;4.50;;
8219;SDS011;4151;51.110;7.020;2023-04-25T00:03:05;19.63;;;4.50;;
8219;SDS011;4151;51.110;7.020;2023-04-25T00:05:31;15.20;;;4.97;;
8219;SDS011;4151;51.110;7.020;2023-04-25T00:07:57;19.30;;;4.70;;
8219;SDS011;4151;51.110;7.020;2023-04-25T00:10:23;12.90;;;4.23;;
8219;SDS011;4151;51.110;7.020;2023-04-25T00:12:48;13.13;;;4.43;;
8219;SDS011;4151;51.110;7.020;2023-04-25T00:15:14;15.90;;;4.20;;
8219;SDS011;4151;51.110;7.020;2023-04-25T00:17:40;18.93;;;5.03;;
8219;SDS011;4151;51.110;7.020;2023-04-25T00:20:06;11.00;;;4.63;;
8219;SDS011;4151;51.110;7.020;2023-04-25T00:22:34;15.83;;;5.17;;
8219;SDS011;4151;51.110;7.020;2023-04-25T00:25:02;7.90;;;4.70;;
8219;SDS011;4151;51.110;7.020;2023-04-25T00:27:29;23.80;;;5.30;;
8219;SDS011;4151;51.110;7.020;2023-04-25T00:29:54;19.07;;;4.63;;
8219;SDS011;4151;51.110;7.020;2023-04-25T00:32:20;10.23;;;4.47;;
8219;SDS011;4151;51.110;7.020;2023-04-25T00:34:45;13.07;;;4.77;;
8219;SDS011;4151;51.110;7.020;2023-04-25T00:37:11;40.77;;;6.77;;
8219;SDS011;4151;51.110;7.020;2023-04-25T00:39:36;22.00;;;5.00;;
8219;SDS011;4151;51.110;7.020;2023-04-25T00:42:02;11.73;;;4.67;;
8219;SDS011;4151;51.110;7.020;2023-04-25T00:44:29;19.33;;;5.47;;
8219;SDS011;4151;51.110;7.020;2023-04-25T00:46:57;13.53;;;4.70;;
8219;SDS011;4151;51.110;7.020;2023-04-25T00:49:22;23.77;;;5.20;;
8219;SDS011;4151;51.110;7.020;2023-04-25T00:51:48;18.90;;;5.80;;
8219;SDS011;4151;51.110;7.020;2023-04-25T00:54:14;15.10;;;5.47;;
8219;SDS011;4151;51.110;7.020;2023-04-25T00:56:40;15.77;;;5.40;;
8219;SDS011;4151;51.110;7.020;2023-04-25T00:59:06;15.20;;;6.10;;
8219;SDS011;4151;51.110;7.020;2023-04-25T01:01:34;13.90;;;5.87;;
8219;SDS011;4151;51.110;7.020;2023-04-25T01:04:00;14.40;;;5.27;;
8219;SDS011;4151;51.110;7.020;2023-04-25T01:06:26;15.17;;;4.40;;
8219;SDS011;4151;51.110;7.020;2023-04-25T01:08:52;12.17;;;5.60;;
8219;SDS011;4151;51.110;7.020;2023-04-25T01:11:18;20.80;;;6.23;;
8219;SDS011;4151;51.110;7.020;2023-04-25T01:13:44;17.90;;;5.43;;
8219;SDS011;4151;51.110;7.020;2023-04-25T01:16:10;14.40;;;5.80;;
8219;SDS011;4151;51.110;7.020;2023-04-25T01:18:36;29.03;;;6.67;;
8219;SDS011;4151;51.110;7.020;2023-04-25T01:21:09;15.33;;;5.83;;
8219;SDS011;4151;51.110;7.020;2023-04-25T01:23:36;18.07;;;5.40;;
8219;SDS011;4151;51.110;7.020;2023-04-25T01:26:03;31.13;;;6.33;;
8219;SDS011;4151;51.110;7.020;2023-04-25T01:28:30;12.83;;;4.93;;
8219;SDS011;4151;51.110;7.020;2023-04-25T01:30:56;15.63;;;6.50;;
8219;SDS011;4151;51.110;7.020;2023-04-25T01:33:22;14.93;;;5.57;;
8219;SDS011;4151;51.110;7.020;2023-04-25T01:35:48;11.90;;;4.20;;
8219;SDS011;4151;51.110;7.020;2023-04-25T01:38:14;26.07;;;4.37;;
8219;SDS011;4151;51.110;7.020;2023-04-25T01:40:40;16.80;;;4.63;;
8219;SDS011;4151;51.110;7.020;2023-04-25T01:43:06;24.13;;;5.00;;
8219;SDS011;4151;51.110;7.020;2023-04-25T01:45:35;15.63;;;4.13;;
8219;SDS011;4151;51.110;7.020;2023-04-25T01:48:04;12.77;;;4.70;;
8219;SDS011;4151;51.110;7.020;2023-04-25T01:50:30;21.07;;;4.83;;
8219;SDS011;4151;51.110;7.020;2023-04-25T01:52:55;20.40;;;4.73;;
8219;SDS011;4151;51.110;7.020;2023-04-25T01:55:21;17.30;;;5.63;;
8219;SDS011;4151;51.110;7.020;2023-04-25T01:57:47;15.53;;;4.70;;
8219;SDS011;4151;51.110;7.020;2023-04-25T02:00:13;25.47;;;4.90;;
8219;SDS011;4151;51.110;7.020;2023-04-25T02:02:38;20.10;;;4.90;;
8219;SDS011;4151;51.110;7.020;2023-04-25T02:05:04;17.93;;;4.57;;
8219;SDS011;4151;51.110;7.020;2023-04-25T02:07:30;11.30;;;3.70;;
8219;SDS011;4151;51.110;7.020;2023-04-25T02:09:57;18.03;;;4.57;;
8219;SDS011;4151;51.110;7.020;2023-04-25T02:12:22;13.77;;;5.77;;
8219;SDS011;4151;51.110;7.020;2023-04-25T02:14:48;15.13;;;4.70;;
8219;SDS011;4151;51.110;7.020;2023-04-25T02:17:14;18.43;;;4.03;;
8219;SDS011;4151;51.110;7.020;2023-04-25T02:19:39;17.43;;;5.87;;
8219;SDS011;4151;51.110;7.020;2023-04-25T02:22:05;18.10;;;5.13;;
8219;SDS011;4151;51.110;7.020;2023-04-25T02:24:30;9.30;;;4.20;;
8219;SDS011;4151;51.110;7.020;2023-04-25T02:26:56;12.50;;;3.83;;
8219;SDS011;4151;51.110;7.020;2023-04-25T02:29:22;20.27;;;4.23;;
8219;SDS011;4151;51.110;7.020;2023-04-25T02:31:48;14.97;;;5.10;;
8219;SDS011;4151;51.110;7.020;2023-04-25T02:34:13;22.93;;;4.67;;
8219;SDS011;4151;51.110;7.020;2023-04-25T02:36:39;9.80;;;3.90;;
8219;SDS011;4151;51.110;7.020;2023-04-25T02:39:05;15.57;;;5.03;;
8219;SDS011;4151;51.110;7.020;2023-04-25T02:41:30;13.43;;;5.87;;
8219;SDS011;4151;51.110;7.020;2023-04-25T02:43:56;15.07;;;4.20;;
8219;SDS011;4151;51.110;7.020;2023-04-25T02:46:21;16.73;;;5.20;;
8219;SDS011;4151;51.110;7.020;2023-04-25T02:48:47;11.83;;;4.20;;
8219;SDS011;4151;51.110;7.020;2023-04-25T02:51:12;19.63;;;4.77;;
8219;SDS011;4151;51.110;7.020;2023-04-25T02:53:38;18.87;;;4.53;;
8219;SDS011;4151;51.110;7.020;2023-04-25T02:56:04;16.70;;;5.23;;
8219;SDS011;4151;51.110;7.020;2023-04-25T02:58:30;19.17;;;5.10;;
8219;SDS011;4151;51.110;7.020;2023-04-25T03:00:55;12.80;;;4.03;;
8219;SDS011;4151;51.110;7.020;2023-04-25T03:03:21;14.43;;;4.73;;
8219;SDS011;4151;51.110;7.020;2023-04-25T03:05:50;11.93;;;4.03;;
8219;SDS011;4151;51.110;7.020;2023-04-25T03:08:19;11.20;;;3.73;;
8219;SDS011;4151;51.110;7.020;2023-04-25T03:10:45;13.77;;;6.03;;
8219;SDS011;4151;51.110;7.020;2023-04-25T03:13:10;11.70;;;4.50;;
8219;SDS011;4151;51.110;7.020;2023-04-25T03:15:36;14.53;;;4.40;;
8219;SDS011;4151;51.110;7.020;2023-04-25T03:18:02;10.53;;;4.83;;
8219;SDS011;4151;51.110;7.020;2023-04-25T03:20:28;9.43;;;4.13;;
8219;SDS011;4151;51.110;7.020;2023-04-25T03:22:54;16.83;;;4.63;;
8219;SDS011;4151;51.110;7.020;2023-04-25T03:25:20;14.50;;;4.83;;
8219;SDS011;4151;51.110;7.020;2023-04-25T03:27:46;8.37;;;4.03;;
8219;SDS011;4151;51.110;7.020;2023-04-25T03:30:11;9.40;;;4.00;;
8219;SDS011;4151;51.110;7.020;2023-04-25T03:32:37;11.17;;;4.07;;
8219;SDS011;4151;51.110;7.020;2023-04-25T03:35:03;7.47;;;3.07;;
8219;SDS011;4151;51.110;7.020;2023-04-25T03:37:28;10.90;;;3.60;;
8219;SDS011;4151;51.110;7.020;2023-04-25T03:39:54;12.00;;;3.90;;
8219;SDS011;4151;51.110;7.020;2023-04-25T03:42:19;23.67;;;6.10;;
8219;SDS011;4151;51.110;7.020;2023-04-25T03:44:47;16.60;;;7.83;;
8219;SDS011;4151;51.110;7.020;2023-04-25T03:47:13;16.60;;;7.70;;
8219;SDS011;4151;51.110;7.020;2023-04-25T03:49:39;13.30;;;5.03;;
8219;SDS011;4151;51.110;7.020;2023-04-25T03:52:04;13.37;;;4.70;;
8219;SDS011;4151;51.110;7.020;2023-04-25T03:54:30;12.67;;;6.03;;
8219;SDS011;4151;51.110;7.020;2023-04-25T03:56:55;12.30;;;4.83;;
8219;SDS011;4151;51.110;7.020;2023-04-25T03:59:21;17.30;;;5.07;;
8219;SDS011;4151;51.110;7.020;2023-04-25T04:01:47;9.30;;;3.70;;
8219;SDS011;4151;51.110;7.020;2023-04-25T04:04:12;21.90;;;5.10;;
8219;SDS011;4151;51.110;7.020;2023-04-25T04:06:39;12.87;;;4.20;;
8219;SDS011;4151;51.110;7.020;2023-04-25T04:09:04;17.43;;;4.00;;
8219;SDS011;4151;51.110;7.020;2023-04-25T04:11:33;12.83;;;4.70;;
8219;SDS011;4151;51.110;7.020;2023-04-25T04:14:01;12.20;;;5.03;;
8219;SDS011;4151;51.110;7.020;2023-04-25T04:16:27;18.00;;;5.70;;
8219;SDS011;4151;51.110;7.020;2023-04-25T04:18:52;17.33;;;5.13;;
8219;SDS011;4151;51.110;7.020;2023-04-25T04:21:18;13.00;;;5.00;;
8219;SDS011;4151;51.110;7.020;2023-04-25T04:23:43;17.73;;;3.60;;
8219;SDS011;4151;51.110;7.020;2023-04-25T04:26:09;13.33;;;5.20;;
8219;SDS011;4151;51.110;7.020;2023-04-25T04:28:36;12.87;;;5.13;;
8219;SDS011;4151;51.110;7.020;2023-04-25T04:31:02;30.23;;;7.30;;
8219;SDS011;4151;51.110;7.020;2023-04-25T04:41:44;11.93;;;5.70;;
8219;SDS011;4151;51.110;7.020;2023-04-25T04:44:10;17.93;;;5.50;;
8219;SDS011;4151;51.110;7.020;2023-04-25T04:46:35;14.70;;;4.90;;
8219;SDS011;4151;51.110;7.020;2023-04-25T04:49:06;15.60;;;5.13;;
8219;SDS011;4151;51.110;7.020;2023-04-25T04:51:33;22.37;;;5.60;;
8219;SDS011;4151;51.110;7.020;2023-04-25T04:53:59;17.50;;;4.63;;
8219;SDS011;4151;51.110;7.020;2023-04-25T04:56:27;22.53;;;5.63;;
8219;SDS011;4151;51.110;7.020;2023-04-25T04:58:56;21.93;;;5.53;;
8219;SDS011;4151;51.110;7.020;2023-04-25T05:01:22;20.43;;;5.17;;
8219;SDS011;4151;51.110;7.020;2023-04-25T05:03:48;19.63;;;5.37;;
8219;SDS011;4151;51.110;7.020;2023-04-25T05:06:15;21.57;;;7.63;;
8219;SDS011;4151;51.110;7.020;2023-04-25T05:08:42;19.50;;;5.43;;
8219;SDS011;4151;51.110;7.020;2023-04-25T05:11:07;11.30;;;5.40;;
8219;SDS011;4151;51.110;7.020;2023-04-25T05:13:33;18.07;;;5.43;;
8219;SDS011;4151;51.110;7.020;2023-04-25T05:15:58;11.00;;;4.77;;
8219;SDS011;4151;51.110;7.020;2023-04-25T05:18:24;24.97;;;5.30;;
8219;SDS011;4151;51.110;7.020;2023-04-25T05:20:49;24.00;;;5.23;;
8219;SDS011;4151;51.110;7.020;2023-04-25T05:23:15;12.73;;;4.97;;
8219;SDS011;4151;51.110;7.020;2023-04-25T05:25:41;18.73;;;5.13;;
8219;SDS011;4151;51.110;7.020;2023-04-25T05:28:06;24.33;;;5.47;;
8219;SDS011;4151;51.110;7.020;2023-04-25T05:30:32;17.10;;;4.80;;
8219;SDS011;4151;51.110;7.020;2023-04-25T05:32:59;18.50;;;5.43;;
8219;SDS011;4151;51.110;7.020;2023-04-25T05:35:25;17.20;;;5.17;;
8219;SDS011;4151;51.110;7.020;2023-04-25T05:37:51;25.43;;;6.30;;
8219;SDS011;4151;51.110;7.020;2023-04-25T05:40:16;17.47;;;4.97;;
8219;SDS011;4151;51.110;7.020;2023-04-25T05:42:42;18.23;;;7.07;;
8219;SDS011;4151;51.110;7.020;2023-04-25T05:45:07;17.23;;;5.47;;
8219;SDS011;4151;51.110;7.020;2023-04-25T05:47:33;17.70;;;5.40;;
8219;SDS011;4151;51.110;7.020;2023-04-25T05:49:59;23.53;;;6.70;;
8219;SDS011;4151;51.110;7.020;2023-04-25T05:52:24;16.23;;;5.10;;
8219;SDS011;4151;51.110;7.020;2023-04-25T05:54:50;23.13;;;6.20;;
8219;SDS011;4151;51.110;7.020;2023-04-25T05:57:22;20.90;;;5.50;;
8219;SDS011;4151;51.110;7.020;2023-04-25T05:59:51;24.80;;;6.10;;
8219;SDS011;4151;51.110;7.020;2023-04-25T06:02:17;15.83;;;5.20;;
8219;SDS011;4151;51.110;7.020;2023-04-25T06:04:44;23.77;;;5.60;;
8219;SDS011;4151;51.110;7.020;2023-04-25T06:07:09;18.57;;;5.40;;
8219;SDS011;4151;51.110;7.020;2023-04-25T06:09:35;19.47;;;5.77;;
8219;SDS011;4151;51.110;7.020;2023-04-25T06:12:01;17.20;;;5.33;;
8219;SDS011;4151;51.110;7.020;2023-04-25T06:14:26;29.83;;;6.27;;
8219;SDS011;4151;51.110;7.020;2023-04-25T06:16:52;24.23;;;5.37;;
8219;SDS011;4151;51.110;7.020;2023-04-25T06:19:18;17.67;;;5.33;;
8219;SDS011;4151;51.110;7.020;2023-04-25T06:21:43;18.97;;;6.50;;
8219;SDS011;4151;51.110;7.020;2023-04-25T06:24:09;22.20;;;5.00;;
8219;SDS011;4151;51.110;7.020;2023-04-25T06:26:35;24.90;;;8.70;;
8219;SDS011;4151;51.110;7.020;2023-04-25T06:29:00;22.03;;;6.30;;
8219;SDS011;4151;51.110;7.020;2023-04-25T06:31:26;16.43;;;5.30;;
8219;SDS011;4151;51.110;7.020;2023-04-25T06:33:51;25.00;;;5.67;;
8219;SDS011;4151;51.110;7.020;2023-04-25T06:36:19;26.40;;;5.00;;
8219;SDS011;4151;51.110;7.020;2023-04-25T06:38:50;15.67;;;5.17;;
8219;SDS011;4151;51.110;7.020;2023-04-25T06:41:17;20.40;;;5.43;;
8219;SDS011;4151;51.110;7.020;2023-04-25T06:43:43;24.07;;;5.33;;
8219;SDS011;4151;51.110;7.020;2023-04-25T06:46:08;20.20;;;5.20;;
8219;SDS011;4151;51.110;7.020;2023-04-25T06:48:34;14.93;;;4.43;;
8219;SDS011;4151;51.110;7.020;2023-04-25T06:50:59;17.60;;;5.70;;
8219;SDS011;4151;51.110;7.020;2023-04-25T06:53:25;18.23;;;5.07;;
8219;SDS011;4151;51.110;7.020;2023-04-25T06:55:51;21.20;;;4.77;;
8219;SDS011;4151;51.110;7.020;2023-04-25T06:58:17;24.13;;;5.60;;
8219;SDS011;4151;51.110;7.020;2023-04-25T07:00:42;25.83;;;5.20;;
8219;SDS011;4151;51.110;7.020;2023-04-25T07:03:08;29.63;;;4.87;;
8219;SDS011;4151;51.110;7.020;2023-04-25T07:05:34;15.03;;;3.83;;
8219;SDS011;4151;51.110;7.020;2023-04-25T07:08:00;21.10;;;4.60;;
8219;SDS011;4151;51.110;7.020;2023-04-25T07:10:25;26.97;;;4.80;;
8219;SDS011;4151;51.110;7.020;2023-04-25T07:12:51;22.63;;;5.13;;
8219;SDS011;4151;51.110;7.020;2023-04-25T07:15:16;17.30;;;4.30;;
8219;SDS011;4151;51.110;7.020;2023-04-25T07:17:42;18.97;;;4.20;;
8219;SDS011;4151;51.110;7.020;2023-04-25T07:20:08;22.00;;;5.70;;
8219;SDS011;4151;51.110;7.020;2023-04-25T07:22:35;16.30;;;4.70;;
8219;SDS011;4151;51.110;7.020;2023-04-25T07:25:00;11.33;;;4.13;;
8219;SDS011;4151;51.110;7.020;2023-04-25T07:27:26;13.93;;;4.50;;
8219;SDS011;4151;51.110;7.020;2023-04-25T07:29:51;14.87;;;4.53;;
8219;SDS011;4151;51.110;7.020;2023-04-25T07:32:17;20.30;;;4.53;;
8219;SDS011;4151;51.110;7.020;2023-04-25T07:34:43;18.37;;;4.03;;
8219;SDS011;4151;51.110;7.020;2023-04-25T07:37:08;24.70;;;4.60;;
8219;SDS011;4151;51.110;7.020;2023-04-25T07:39:34;19.87;;;3.70;;
8219;SDS011;4151;51.110;7.020;2023-04-25T07:42:00;13.33;;;3.73;;
8219;SDS011;4151;51.110;7.020;2023-04-25T07:44:26;24.13;;;3.97;;
8219;SDS011;4151;51.110;7.020;2023-04-25T07:46:52;11.30;;;3.30;;
8219;SDS011;4151;51.110;7.020;2023-04-25T07:49:18;14.60;;;3.80;;
8219;SDS011;4151;51.110;7.020;2023-04-25T07:51:43;14.63;;;3.17;;
8219;SDS011;4151;51.110;7.020;2023-04-25T07:54:09;17.50;;;2.97;;
8219;SDS011;4151;51.110;7.020;2023-04-25T07:56:37;8.67;;;3.07;;
8219;SDS011;4151;51.110;7.020;2023-04-25T07:59:02;11.93;;;3.07;;
8219;SDS011;4151;51.110;7.020;2023-04-25T08:01:28;18.33;;;3.90;;
8219;SDS011;4151;51.110;7.020;2023-04-25T08:03:53;13.27;;;5.70;;
8219;SDS011;4151;51.110;7.020;2023-04-25T08:06:19;24.13;;;3.13;;
8219;SDS011;4151;51.110;7.020;2023-04-25T08:08:45;22.93;;;2.70;;
8219;SDS011;4151;51.110;7.020;2023-04-25T08:11:11;16.97;;;3.23;;
8219;SDS011;4151;51.110;7.020;2023-04-25T08:13:36;8.40;;;2.90;;
8219;SDS011;4151;51.110;7.020;2023-04-25T08:16:02;30.50;;;3.20;;
8219;SDS011;4151;51.110;7.020;2023-04-25T08:18:27;9.93;;;2.83;;
8219;SDS011;4151;51.110;7.020;2023-04-25T08:20:53;11.33;;;3.20;;
8219;SDS011;4151;51.110;7.020;2023-04-25T08:23:18;9.30;;;3.13;;
8219;SDS011;4151;51.110;7.020;2023-04-25T08:25:44;7.27;;;2.77;;
8219;SDS011;4151;51.110;7.020;2023-04-25T08:28:10;7.50;;;2.90;;
8219;SDS011;4151;51.110;7.020;2023-04-25T08:30:36;11.60;;;4.80;;
8219;SDS011;4151;51.110;7.020;2023-04-25T08:33:01;17.33;;;3.30;;
8219;SDS011;4151;51.110;7.020;2023-04-25T08:35:27;10.70;;;2.90;;
8219;SDS011;4151;51.110;7.020;2023-04-25T08:37:53;17.83;;;3.50;;
8219;SDS011;4151;51.110;7.020;2023-04-25T08:40:19;23.17;;;3.27;;
8219;SDS011;4151;51.110;7.020;2023-04-25T08:42:51;16.87;;;3.23;;
8219;SDS011;4151;51.110;7.020;2023-04-25T08:45:18;9.77;;;3.43;;
8219;SDS011;4151;51.110;7.020;2023-04-25T08:47:45;10.40;;;2.63;;
8219;SDS011;4151;51.110;7.020;2023-04-25T08:50:10;14.33;;;3.80;;
8219;SDS011;4151;51.110;7.020;2023-04-25T08:52:37;15.20;;;2.60;;
8219;SDS011;4151;51.110;7.020;2023-04-25T08:55:08;20.23;;;3.30;;
8219;SDS011;4151;51.110;7.020;2023-04-25T08:57:34;14.27;;;3.10;;
8219;SDS011;4151;51.110;7.020;2023-04-25T09:00:00;10.30;;;3.00;;
8219;SDS011;4151;51.110;7.020;2023-04-25T09:02:26;12.13;;;4.30;;
8219;SDS011;4151;51.110;7.020;2023-04-25T09:04:53;11.03;;;3.30;;
8219;SDS011;4151;51.110;7.020;2023-04-25T09:07:20;12.50;;;3.60;;
8219;SDS011;4151;51.110;7.020;2023-04-25T09:09:46;17.50;;;2.60;;
8219;SDS011;4151;51.110;7.020;2023-04-25T09:12:12;13.77;;;2.63;;
8219;SDS011;4151;51.110;7.020;2023-04-25T09:14:38;21.10;;;3.53;;
8219;SDS011;4151;51.110;7.020;2023-04-25T09:17:04;16.20;;;2.70;;
8219;SDS011;4151;51.110;7.020;2023-04-25T09:19:34;7.63;;;2.20;;
8219;SDS011;4151;51.110;7.020;2023-04-25T09:22:03;9.20;;;2.40;;
8219;SDS011;4151;51.110;7.020;2023-04-25T09:24:33;8.40;;;2.30;;
8219;SDS011;4151;51.110;7.020;2023-04-25T09:27:05;6.40;;;2.23;;
8219;SDS011;4151;51.110;7.020;2023-04-25T09:29:36;8.93;;;2.83;;
8219;SDS011;4151;51.110;7.020;2023-04-25T09:32:22;12.97;;;3.70;;
8219;SDS011;4151;51.110;7.020;2023-04-25T09:34:55;10.03;;;2.67;;
8219;SDS011;4151;51.110;7.020;2023-04-25T09:37:22;11.47;;;2.43;;
8219;SDS011;4151;51.110;7.020;2023-04-25T09:39:52;9.87;;;2.10;;
8219;SDS011;4151;51.110;7.020;2023-04-25T09:42:22;10.50;;;2.60;;
8219;SDS011;4151;51.110;7.020;2023-04-25T09:44:49;11.33;;;3.03;;
8219;SDS011;4151;51.110;7.020;2023-04-25T09:47:17;12.07;;;2.90;;
8219;SDS011;4151;51.110;7.020;2023-04-25T09:49:43;8.80;;;3.20;;
8219;SDS011;4151;51.110;7.020;2023-04-25T09:52:09;8.07;;;2.70;;
8219;SDS011;4151;51.110;7.020;2023-04-25T09:54:42;8.33;;;2.70;;
8219;SDS011;4151;51.110;7.020;2023-04-25T10:02:12;9.70;;;1.90;;
8219;SDS011;4151;51.110;7.020;2023-04-25T10:04:44;11.80;;;2.43;;
8219;SDS011;4151;51.110;7.020;2023-04-25T10:07:14;9.43;;;2.10;;
8219;SDS011;4151;51.110;7.020;2023-04-25T10:09:40;12.77;;;2.83;;
8219;SDS011;4151;51.110;7.020;2023-04-25T10:12:08;6.23;;;2.70;;
8219;SDS011;4151;51.110;7.020;2023-04-25T10:24:34;15.13;;;2.13;;
8219;SDS011;4151;51.110;7.020;2023-04-25T10:27:01;9.83;;;2.47;;
8219;SDS011;4151;51.110;7.020;2023-04-25T10:29:27;6.73;;;2.07;;
8219;SDS011;4151;51.110;7.020;2023-04-25T10:31:53;10.90;;;2.53;;
8219;SDS011;4151;51.110;7.020;2023-04-25T10:34:19;9.17;;;2.00;;
8219;SDS011;4151;51.110;7.020;2023-04-25T10:36:50;9.03;;;2.77;;
8219;SDS011;4151;51.110;7.020;2023-04-25T10:39:24;6.50;;;2.10;;
8219;SDS011;4151;51.110;7.020;2023-04-25T10:41:52;5.53;;;2.10;;
8219;SDS011;4151;51.110;7.020;2023-04-25T10:44:20;3.90;;;1.40;;
8219;SDS011;4151;51.110;7.020;2023-04-25T10:46:46;5.23;;;1.73;;
8219;SDS011;4151;51.110;7.020;2023-04-25T10:49:28;4.10;;;2.03;;
8219;SDS011;4151;51.110;7.020;2023-04-25T10:52:10;15.73;;;2.60;;
8219;SDS011;4151;51.110;7.020;2023-04-25T10:54:48;10.77;;;2.13;;
8219;SDS011;4151;51.110;7.020;2023-04-25T11:02:31;9.10;;;1.70;;
8219;SDS011;4151;51.110;7.020;2023-04-25T11:05:01;7.70;;;2.17;;
8219;SDS011;4151;51.110;7.020;2023-04-25T11:09:56;6.20;;;2.23;;
8219;SDS011;4151;51.110;7.020;2023-04-25T11:12:21;4.30;;;1.70;;
8219;SDS011;4151;51.110;7.020;2023-04-25T11:14:49;4.67;;;2.00;;
8219;SDS011;4151;51.110;7.020;2023-04-25T11:17:15;7.83;;;1.93;;
8219;SDS011;4151;51.110;7.020;2023-04-25T11:19:40;6.63;;;1.80;;
8219;SDS011;4151;51.110;7.020;2023-04-25T11:22:06;4.80;;;1.80;;
8219;SDS011;4151;51.110;7.020;2023-04-25T11:24:33;4.67;;;1.93;;
8219;SDS011;4151;51.110;7.020;2023-04-25T11:27:03;7.57;;;2.03;;
8219;SDS011;4151;51.110;7.020;2023-04-25T11:29:30;4.17;;;1.40;;
8219;SDS011;4151;51.110;7.020;2023-04-25T11:31:57;8.43;;;2.00;;
8219;SDS011;4151;51.110;7.020;2023-04-25T11:34:24;7.00;;;1.43;;
8219;SDS011;4151;51.110;7.020;2023-04-25T11:36:50;7.03;;;1.93;;
8219;SDS011;4151;51.110;7.020;2023-04-25T11:39:19;7.87;;;1.37;;
8219;SDS011;4151;51.110;7.020;2023-04-25T11:41:46;3.47;;;1.70;;
8219;SDS011;4151;51.110;7.020;2023-04-25T11:44:12;3.63;;;1.43;;
8219;SDS011;4151;51.110;7.020;2023-04-25T11:46:41;5.77;;;1.43;;
8219;SDS011;4151;51.110;7.020;2023-04-25T11:49:07;5.37;;;1.73;;
8219;SDS011;4151;51.110;7.020;2023-04-25T11:54:05;5.60;;;1.70;;
8219;SDS011;4151;51.110;7.020;2023-04-25T11:56:31;3.93;;;1.57;;
8219;SDS011;4151;51.110;7.020;2023-04-25T11:59:01;9.70;;;1.80;;
8219;SDS011;4151;51.110;7.020;2023-04-25T12:01:38;9.00;;;1.80;;
8219;SDS011;4151;51.110;7.020;2023-04-25T12:04:17;3.13;;;1.30;;
8219;SDS011;4151;51.110;7.020;2023-04-25T12:06:48;4.30;;;1.30;;
8219;SDS011;4151;51.110;7.020;2023-04-25T12:09:16;6.20;;;1.47;;
8219;SDS011;4151;51.110;7.020;2023-04-25T12:11:52;11.17;;;2.17;;
8219;SDS011;4151;51.110;7.020;2023-04-25T12:14:23;4.83;;;1.60;;
8219;SDS011;4151;51.110;7.020;2023-04-25T12:16:56;8.80;;;1.87;;
8219;SDS011;4151;51.110;7.020;2023-04-25T12:19:27;7.10;;;1.70;;
8219;SDS011;4151;51.110;7.020;2023-04-25T12:21:58;4.57;;;1.70;;
8219;SDS011;4151;51.110;7.020;2023-04-25T12:24:26;5.87;;;1.67;;
8219;SDS011;4151;51.110;7.020;2023-04-25T12:29:20;6.77;;;2.30;;
8219;SDS011;4151;51.110;7.020;2023-04-25T12:31:48;6.07;;;1.87;;
8219;SDS011;4151;51.110;7.020;2023-04-25T12:34:14;8.60;;;1.90;;
8219;SDS011;4151;51.110;7.020;2023-04-25T12:36:40;11.90;;;2.60;;
8219;SDS011;4151;51.110;7.020;2023-04-25T12:39:06;7.63;;;2.00;;
8219;SDS011;4151;51.110;7.020;2023-04-25T12:41:32;15.33;;;2.80;;
8219;SDS011;4151;51.110;7.020;2023-04-25T12:43:58;8.13;;;2.13;;
8219;SDS011;4151;51.110;7.020;2023-04-25T12:46:24;7.77;;;2.30;;
8219;SDS011;4151;51.110;7.020;2023-04-25T12:48:50;6.70;;;2.27;;
8219;SDS011;4151;51.110;7.020;2023-04-25T12:51:15;4.13;;;2.20;;
8219;SDS011;4151;51.110;7.020;2023-04-25T12:53:41;5.07;;;1.53;;
8219;SDS011;4151;51.110;7.020;2023-04-25T12:56:07;8.63;;;2.63;;
8219;SDS011;4151;51.110;7.020;2023-04-25T12:58:33;3.30;;;2.03;;
8219;SDS011;4151;51.110;7.020;2023-04-25T13:01:00;10.10;;;2.37;;
8219;SDS011;4151;51.110;7.020;2023-04-25T13:03:25;9.13;;;3.73;;
8219;SDS011;4151;51.110;7.020;2023-04-25T13:05:51;17.23;;;6.27;;
8219;SDS011;4151;51.110;7.020;2023-04-25T13:08:18;6.53;;;2.73;;
8219;SDS011;4151;51.110;7.020;2023-04-25T13:10:43;16.03;;;3.63;;
8219;SDS011;4151;51.110;7.020;2023-04-25T13:13:09;13.43;;;3.40;;
8219;SDS011;4151;51.110;7.020;2023-04-25T13:15:35;20.47;;;2.63;;
8219;SDS011;4151;51.110;7.020;2023-04-25T13:18:01;10.67;;;3.40;;
8219;SDS011;4151;51.110;7.020;2023-04-25T13:20:28;9.90;;;2.73;;
8219;SDS011;4151;51.110;7.020;2023-04-25T13:22:53;10.77;;;3.60;;
8219;SDS011;4151;51.110;7.020;2023-04-25T13:25:20;7.03;;;2.50;;
8219;SDS011;4151;51.110;7.020;2023-04-25T13:27:46;9.07;;;2.90;;
8219;SDS011;4151;51.110;7.020;2023-04-25T13:30:12;4.87;;;1.80;;
8219;SDS011;4151;51.110;7.020;2023-04-25T13:32:38;10.27;;;2.30;;
8219;SDS011;4151;51.110;7.020;2023-04-25T13:35:05;7.53;;;2.27;;
8219;SDS011;4151;51.110;7.020;2023-04-25T13:37:32;8.27;;;2.30;;
8219;SDS011;4151;51.110;7.020;2023-04-25T13:40:01;7.10;;;2.33;;
8219;SDS011;4151;51.110;7.020;2023-04-25T13:42:29;5.33;;;2.13;;
8219;SDS011;4151;51.110;7.020;2023-04-25T13:44:57;8.53;;;2.00;;
8219;SDS011;4151;51.110;7.020;2023-04-25T13:47:23;6.10;;;2.43;;
8219;SDS011;4151;51.110;7.020;2023-04-25T13:49:49;3.87;;;2.30;;
8219;SDS011;4151;51.110;7.020;2023-04-25T13:52:15;8.97;;;2.13;;
8219;SDS011;4151;51.110;7.020;2023-04-25T13:54:41;7.70;;;2.60;;
8219;SDS011;4151;51.110;7.020;2023-04-25T13:57:06;11.33;;;2.20;;
8219;SDS011;4151;51.110;7.020;2023-04-25T13:59:32;7.70;;;3.00;;
8219;SDS011;4151;51.110;7.020;2023-04-25T14:01:58;9.03;;;2.57;;
8219;SDS011;4151;51.110;7.020;2023-04-25T14:04:24;5.90;;;1.73;;
8219;SDS011;4151;51.110;7.020;2023-04-25T14:06:50;10.03;;;2.97;;
8219;SDS011;4151;51.110;7.020;2023-04-25T14:09:16;5.20;;;2.40;;
8219;SDS011;4151;51.110;7.020;2023-04-25T14:11:42;7.50;;;2.40;;
8219;SDS011;4151;51.110;7.020;2023-04-25T14:14:07;9.07;;;2.00;;
8219;SDS011;4151;51.110;7.020;2023-04-25T14:16:33;4.57;;;1.60;;
8219;SDS011;4151;51.110;7.020;2023-04-25T14:18:59;5.30;;;2.07;;
8219;SDS011;4151;51.110;7.020;2023-04-25T14:21:26;4.17;;;1.60;;
8219;SDS011;4151;51.110;7.020;2023-04-25T14:23:52;8.40;;;1.57;;
8219;SDS011;4151;51.110;7.020;2023-04-25T14:26:17;5.43;;;1.70;;
8219;SDS011;4151;51.110;7.020;2023-04-25T14:28:43;9.17;;;1.70;;
8219;SDS011;4151;51.110;7.020;2023-04-25T14:31:09;4.83;;;1.50;;
8219;SDS011;4151;51.110;7.020;2023-04-25T14:33:34;2.60;;;1.57;;
8219;SDS011;4151;51.110;7.020;2023-04-25T14:36:00;8.33;;;1.67;;
8219;SDS011;4151;51.110;7.020;2023-04-25T14:38:26;3.90;;;1.53;;
8219;SDS011;4151;51.110;7.020;2023-04-25T14:40:51;3.80;;;1.93;;
8219;SDS011;4151;51.110;7.020;2023-04-25T14:43:18;4.53;;;1.37;;
8219;SDS011;4151;51.110;7.020;2023-04-25T14:45:44;3.27;;;1.60;;
8219;SDS011;4151;51.110;7.020;2023-04-25T14:48:10;1.97;;;1.27;;
8219;SDS011;4151;51.110;7.020;2023-04-25T14:50:36;2.50;;;1.40;;
8219;SDS011;4151;51.110;7.020;2023-04-25T14:53:01;4.20;;;1.63;;
8219;SDS011;4151;51.110;7.020;2023-04-25T14:55:27;4.00;;;1.53;;
8219;SDS011;4151;51.110;7.020;2023-04-25T14:57:53;4.63;;;1.73;;
8219;SDS011;4151;51.110;7.020;2023-04-25T15:00:20;11.00;;;2.63;;
8219;SDS011;4151;51.110;7.020;2023-04-25T15:02:46;3.00;;;1.40;;
8219;SDS011;4151;51.110;7.020;2023-04-25T15:05:13;4.27;;;1.97;;
8219;SDS011;4151;51.110;7.020;2023-04-25T15:07:39;5.20;;;1.47;;
8219;SDS011;4151;51.110;7.020;2023-04-25T15:10:05;5.93;;;2.00;;
8219;SDS011;4151;51.110;7.020;2023-04-25T15:12:41;3.73;;;1.80;;
8219;SDS011;4151;51.110;7.020;2023-04-25T15:15:10;6.43;;;2.00;;
8219;SDS011;4151;51.110;7.020;2023-04-25T15:17:43;7.23;;;1.87;;
8219;SDS011;4151;51.110;7.020;2023-04-25T15:20:09;5.67;;;1.53;;
8219;SDS011;4151;51.110;7.020;2023-04-25T15:22:36;4.90;;;1.67;;
8219;SDS011;4151;51.110;7.020;2023-04-25T15:25:05;9.30;;;2.20;;
8219;SDS011;4151;51.110;7.020;2023-04-25T15:27:35;7.93;;;2.00;;
8219;SDS011;4151;51.110;7.020;2023-04-25T15:30:12;6.13;;;1.97;;
8219;SDS011;4151;51.110;7.020;2023-04-25T15:32:40;4.10;;;1.90;;
8219;SDS011;4151;51.110;7.020;2023-04-25T15:35:07;6.07;;;1.60;;
8219;SDS011;4151;51.110;7.020;2023-04-25T15:37:33;6.40;;;1.60;;
8219;SDS011;4151;51.110;7.020;2023-04-25T15:40:01;3.67;;;1.47;;